Courageous — WBC5659 — position and weather

sailwx.info

Track history (hours):
 
Tides and Currents Weather Stations Pressure Air Temp Water Temp Dewpoint Dewpoint Depression Visibility Wind Speed Wind Dir Waves Ship Positions

Courageous

Last reported at 2017-Jul-24 11:46 UTC. Time now 2017-Oct-18 15:04 UTC.
Position N 48°58' W 126°30'.
Warning: this ship's position is months out of date.

Length 54 m; draft 6 m.

Type: Ship (hazmat cat B). MMSI: 368499000.

Date/timePositionNaut miles runAvg speedWind from/ knotsBaromVisibWave heightAir tempDewpointWater temp
2017-Jul-24 11:46N 48°58' W 126°30'2 8.0
2017-Jul-24 11:29N 48°57' W 126°27'4 8.1
2017-Jul-24 11:00N 48°56' W 126°22'4 8.5
2017-Jul-24 10:30N 48°54' W 126°16'4 8.6
2017-Jul-24 10:01N 48°52' W 126°10'4 8.7
2017-Jul-24 09:31N 48°50' W 126°05'5 9.0
2017-Jul-24 09:00N 48°48' W 125°58'5 9.2
2017-Jul-24 08:31N 48°46' W 125°52'4 8.8
2017-Jul-24 08:01N 48°44' W 125°46'4 8.9
2017-Jul-24 07:31N 48°42' W 125°40'5 9.0
2017-Jul-24 06:59N 48°40' W 125°34'4 9.0
2017-Jul-24 06:31N 48°37' W 125°28'6 9.2
2017-Jul-24 05:51N 48°34' W 125°21'5 9.2
2017-Jul-24 05:17N 48°32' W 125°13'3 9.4
2017-Jul-24 04:59N 48°31' W 125°09'4 9.5
2017-Jul-24 04:31N 48°31' W 125°03'5 9.9
2017-Jul-24 04:01N 48°31' W 124°55'510.1
2017-Jul-24 03:30N 48°31' W 124°48'5 9.9
2017-Jul-24 03:01N 48°30' W 124°40'510.4
2017-Jul-24 02:31N 48°28' W 124°33'510.2
2017-Jul-24 02:00N 48°26' W 124°26'510.1
2017-Jul-24 01:30N 48°24' W 124°19'5 9.4
2017-Jul-24 01:01N 48°22' W 124°12'4 8.9
2017-Jul-24 00:31N 48°20' W 124°06'5 9.0
2017-Jul-24 00:00N 48°18' W 124°00'5 9.0
2017-Jul-23 23:30N 48°17' W 123°53'5 8.9
2017-Jul-23 22:59N 48°16' W 123°47'4 9.0
2017-Jul-23 22:30N 48°16' W 123°40'4 8.6
2017-Jul-23 21:59N 48°15' W 123°33'5 8.6
2017-Jul-23 21:26N 48°15' W 123°26'4 9.2
2017-Jul-23 21:00N 48°14' W 123°20'5 9.7
2017-Jul-23 20:30N 48°13' W 123°13'510.1
2017-Jul-23 20:01N 48°13' W 123°06'610.8
2017-Jul-23 19:28N 48°12' W 122°57'711.7
2017-Jul-23 18:53N 48°11' W 122°47'1311.6
2017-Jul-23 17:43N 47°60' W 122°36'312.3
2017-Jul-23 17:31N 47°58' W 122°34'611.6
2017-Jul-23 17:01N 47°53' W 122°28'611.4
2017-Jul-23 16:30N 47°48' W 122°26'611.1
2017-Jul-23 16:01N 47°42' W 122°26'3 5.3
2017-Jul-23 15:31N 47°40' W 122°24'0 0.4
2017-Jul-23 15:01N 47°40' W 122°24'0 0.0
2017-Jul-23 14:31N 47°40' W 122°24'0 0.0
2017-Jul-23 14:01N 47°40' W 122°24'0 0.0
2017-Jul-23 13:31N 47°40' W 122°24'0 0.0
2017-Jul-23 13:00N 47°40' W 122°24'0 0.0
2017-Jul-23 12:31N 47°40' W 122°24'0 0.0
2017-Jul-23 12:00N 47°40' W 122°24'0 0.0
2017-Jul-23 11:31N 47°40' W 122°24'0 0.0
2017-Jul-23 11:00N 47°40' W 122°24'0 0.0
2017-Jul-23 10:30N 47°40' W 122°24'0 0.0
2017-Jul-23 10:01N 47°40' W 122°24'0 0.0
2017-Jul-23 09:30N 47°40' W 122°24'0 0.0
2017-Jul-23 09:00N 47°40' W 122°24'0 0.0
2017-Jul-23 08:30N 47°40' W 122°24'0 0.0
2017-Jul-23 08:01N 47°40' W 122°24'0 0.0
2017-Jul-23 07:30N 47°40' W 122°24'0 0.0
2017-Jul-23 07:01N 47°40' W 122°24'0 0.0
2017-Jul-23 06:31N 47°40' W 122°24'0 0.0
2017-Jul-23 06:00N 47°40' W 122°24'0 0.0
2017-Jul-23 05:30N 47°40' W 122°24'0 0.0
2017-Jul-23 05:00N 47°40' W 122°24'0 0.0
2017-Jul-23 04:31N 47°40' W 122°24'0 0.0
2017-Jul-23 04:01N 47°40' W 122°24'0 0.0
2017-Jul-23 03:31N 47°40' W 122°24'0 0.0
2017-Jul-23 03:01N 47°40' W 122°24'0 0.0
2017-Jul-23 02:31N 47°40' W 122°24'0 0.0
2017-Jul-23 02:00N 47°40' W 122°24'0 0.0
2017-Jul-23 01:31N 47°40' W 122°24'0 0.0
2017-Jul-23 01:01N 47°40' W 122°24'0 0.0
2017-Jul-23 00:31N 47°40' W 122°24'0 0.0
2017-Jul-23 00:00N 47°40' W 122°24'0 0.0
2017-Jul-22 23:31N 47°40' W 122°24'0 0.0
2017-Jul-22 23:00N 47°40' W 122°24'0 0.0
2017-Jul-22 22:30N 47°40' W 122°24'0 0.0
2017-Jul-22 22:00N 47°40' W 122°24'0 0.0
2017-Jul-22 21:31N 47°40' W 122°24'0 0.1
2017-Jul-22 21:01N 47°40' W 122°24'0 0.6
2017-Jul-22 20:31N 47°40' W 122°23'0 0.0
2017-Jul-22 20:01N 47°40' W 122°23'0 0.0
2017-Jul-22 19:31N 47°40' W 122°23'0 0.0
2017-Jul-22 19:01N 47°40' W 122°23'0 0.0
2017-Jul-22 18:31N 47°40' W 122°23'0 0.0
2017-Jul-22 18:01N 47°40' W 122°23'0 0.0
2017-Jul-22 17:31N 47°40' W 122°23'0 0.0
2017-Jul-22 17:01N 47°40' W 122°23'0 0.0
2017-Jul-22 16:30N 47°40' W 122°23'0 0.0
2017-Jul-22 16:00N 47°40' W 122°23'0 0.0
2017-Jul-22 15:31N 47°40' W 122°23'0 0.0
2017-Jul-22 15:01N 47°40' W 122°23'0 0.3
2017-Jul-22 14:01N 47°40' W 122°24'0 0.0
2017-Jul-22 13:31N 47°40' W 122°24'0 0.0
2017-Jul-22 13:01N 47°40' W 122°24'0 0.0
2017-Jul-22 12:30N 47°40' W 122°24'0 0.0
2017-Jul-22 12:01N 47°40' W 122°24'0 0.0
2017-Jul-22 11:30N 47°40' W 122°24'0 0.0
2017-Jul-22 11:01N 47°40' W 122°24'0 0.0
2017-Jul-22 10:31N 47°40' W 122°24'0 0.0
2017-Jul-22 10:01N 47°40' W 122°24'0 0.0
2017-Jul-22 09:31N 47°40' W 122°24'0 0.0
2017-Jul-22 09:01N 47°40' W 122°24'0 0.0
2017-Jul-22 08:31N 47°40' W 122°24'0 0.0
2017-Jul-22 08:00N 47°40' W 122°24'0 0.0
2017-Jul-22 07:31N 47°40' W 122°24'0 0.0
2017-Jul-22 07:00N 47°40' W 122°24'0 0.0
2017-Jul-22 06:30N 47°40' W 122°24'0 0.0
2017-Jul-22 06:01N 47°40' W 122°24'0 0.0
2017-Jul-22 05:31N 47°40' W 122°24'0 0.0
2017-Jul-22 05:01N 47°40' W 122°24'0 0.0
2017-Jul-22 04:30N 47°40' W 122°24'0 0.0
2017-Jul-22 04:01N 47°40' W 122°24'0 0.0
2017-Jul-22 03:31N 47°40' W 122°24'0 0.0
2017-Jul-22 03:00N 47°40' W 122°24'0 0.0
2017-Jul-22 02:31N 47°40' W 122°24'0 0.0
2017-Jul-22 02:00N 47°40' W 122°24'0 0.0
2017-Jul-22 01:31N 47°40' W 122°24'0 0.0
2017-Jul-22 01:01N 47°40' W 122°24'0 0.0
2017-Jul-22 00:31N 47°40' W 122°24'0 0.0
2017-Jul-22 00:00N 47°40' W 122°24'0 0.0
2017-Jul-21 23:31N 47°40' W 122°24'0 0.0
2017-Jul-21 23:01N 47°40' W 122°24'0 0.0
2017-Jul-21 22:31N 47°40' W 122°24'0 0.0
2017-Jul-21 22:01N 47°40' W 122°24'0 0.0
2017-Jul-21 21:29N 47°40' W 122°24'0 0.0
2017-Jul-21 21:00N 47°40' W 122°24'0 0.0
2017-Jul-21 20:22N 47°40' W 122°24'0 0.0
2017-Jul-21 19:55N 47°40' W 122°24'0 0.0
2017-Jul-21 19:30N 47°40' W 122°24'0 0.0
2017-Jul-21 18:59N 47°40' W 122°24'0 0.0
2017-Jul-21 18:30N 47°40' W 122°24'0 0.0
2017-Jul-21 17:58N 47°40' W 122°24'0 0.0
2017-Jul-21 17:30N 47°40' W 122°24'0 0.0
2017-Jul-21 16:59N 47°40' W 122°24'0 0.0
2017-Jul-21 16:29N 47°40' W 122°24'0 0.0
2017-Jul-21 15:58N 47°40' W 122°24'0 0.0
2017-Jul-21 15:27N 47°40' W 122°24'0 0.0
2017-Jul-21 14:33N 47°40' W 122°24'0 0.0
2017-Jul-21 14:27N 47°40' W 122°24'0 0.0
2017-Jul-21 13:56N 47°40' W 122°24'0 0.0
2017-Jul-21 13:30N 47°40' W 122°24'0 0.0
2017-Jul-21 12:59N 47°40' W 122°24'0 0.0
2017-Jul-21 12:26N 47°40' W 122°24'0 0.0
2017-Jul-21 11:57N 47°40' W 122°24'0 0.0
2017-Jul-21 11:23N 47°40' W 122°24'0 0.0
2017-Jul-21 10:58N 47°40' W 122°24'0 0.0
2017-Jul-21 10:26N 47°40' W 122°24'0 0.0
2017-Jul-21 10:01N 47°40' W 122°24'0 0.0
2017-Jul-21 09:30N 47°40' W 122°24'0 0.0
2017-Jul-21 09:01N 47°40' W 122°24'0 0.0
2017-Jul-21 08:31N 47°40' W 122°24'0 0.0
2017-Jul-21 08:01N 47°40' W 122°24'0 0.0
2017-Jul-21 07:31N 47°40' W 122°24'0 0.0
2017-Jul-21 07:00N 47°40' W 122°24'0 0.0
2017-Jul-21 06:31N 47°40' W 122°24'0 0.0
2017-Jul-21 06:00N 47°40' W 122°24'0 0.0
2017-Jul-21 05:31N 47°40' W 122°24'0 0.0
2017-Jul-21 05:01N 47°40' W 122°24'0 0.0
2017-Jul-21 04:31N 47°40' W 122°24'0 0.0
2017-Jul-21 04:01N 47°40' W 122°24'0 0.0
2017-Jul-21 03:30N 47°40' W 122°24'0 0.0
2017-Jul-21 03:01N 47°40' W 122°24'0 0.0
2017-Jul-21 02:31N 47°40' W 122°24'0 0.0
2017-Jul-21 02:00N 47°40' W 122°24'0 0.0
2017-Jul-21 01:31N 47°40' W 122°24'0 0.0
2017-Jul-21 01:01N 47°40' W 122°24'0 0.0
2017-Jul-21 00:31N 47°40' W 122°24'0 0.0
2017-Jul-21 00:01N 47°40' W 122°24'0 0.0
2017-Jul-20 23:31N 47°40' W 122°24'0 0.0
2017-Jul-20 23:00N 47°40' W 122°24'0 0.0
2017-Jul-20 22:31N 47°40' W 122°24'0 0.0
2017-Jul-20 22:01N 47°40' W 122°24'0 0.0
2017-Jul-20 21:30N 47°40' W 122°24'0 0.0
2017-Jul-20 21:01N 47°40' W 122°24'0 0.0
2017-Jul-20 20:31N 47°40' W 122°24'0 0.0
2017-Jul-20 20:00N 47°40' W 122°24'0 0.0
2017-Jul-20 19:31N 47°40' W 122°24'0 0.0
2017-Jul-20 19:01N 47°40' W 122°24'0 0.0
2017-Jul-20 18:31N 47°40' W 122°24'0 0.0
2017-Jul-20 18:01N 47°40' W 122°24'0 0.0
2017-Jul-20 17:31N 47°40' W 122°24'0 0.0
2017-Jul-20 17:01N 47°40' W 122°24'0 0.0
2017-Jul-20 16:31N 47°40' W 122°24'0 0.0
2017-Jul-20 16:00N 47°40' W 122°24'0 0.0
2017-Jul-20 15:31N 47°40' W 122°24'0 0.0
2017-Jul-20 15:01N 47°40' W 122°24'0 0.0
2017-Jul-20 14:01N 47°40' W 122°24'0 0.0
2017-Jul-20 13:30N 47°40' W 122°24'0 0.0
2017-Jul-20 13:01N 47°40' W 122°24'0 0.0
2017-Jul-20 12:31N 47°40' W 122°24'0 0.0
2017-Jul-20 12:01N 47°40' W 122°24'0 0.0
2017-Jul-20 11:31N 47°40' W 122°24'0 0.0
2017-Jul-20 11:00N 47°40' W 122°24'0 0.0
2017-Jul-20 10:30N 47°40' W 122°24'0 0.0
2017-Jul-20 10:01N 47°40' W 122°24'0 0.0
2017-Jul-20 09:31N 47°40' W 122°24'0 0.0
2017-Jul-20 09:01N 47°40' W 122°24'0 0.0
2017-Jul-20 08:31N 47°40' W 122°24'0 0.0
2017-Jul-20 08:00N 47°40' W 122°24'0 0.0
2017-Jul-20 07:30N 47°40' W 122°24'0 0.0
2017-Jul-20 07:01N 47°40' W 122°24'0 0.0
2017-Jul-20 06:30N 47°40' W 122°24'0 0.0
2017-Jul-20 06:01N 47°40' W 122°24'0 0.0
2017-Jul-20 05:30N 47°40' W 122°24'0 0.0
2017-Jul-20 05:00N 47°40' W 122°24'0 0.0
2017-Jul-20 04:30N 47°40' W 122°24'0 0.0
2017-Jul-20 04:01N 47°40' W 122°24'0 0.0
2017-Jul-20 03:30N 47°40' W 122°24'0 0.0
2017-Jul-20 03:01N 47°40' W 122°24'0 0.0
2017-Jul-20 02:30N 47°40' W 122°24'0 0.0
2017-Jul-20 02:01N 47°40' W 122°24'0 0.0
2017-Jul-20 01:30N 47°40' W 122°24'0 0.0
2017-Jul-20 01:01N 47°40' W 122°24'0 0.0
2017-Jul-20 00:31N 47°40' W 122°24'0 0.0
2017-Jul-20 00:00N 47°40' W 122°24'0 0.0
2017-Jul-19 23:30N 47°40' W 122°24'0 0.0
2017-Jul-19 23:01N 47°40' W 122°24'0 0.0
2017-Jul-19 22:31N 47°40' W 122°24'0 0.0
2017-Jul-19 22:00N 47°40' W 122°24'0 0.0
2017-Jul-19 21:31N 47°40' W 122°24'0 0.0
2017-Jul-19 21:01N 47°40' W 122°24'0 0.0
2017-Jul-19 20:31N 47°40' W 122°24'0 0.0
2017-Jul-19 20:01N 47°40' W 122°24'0 0.0
2017-Jul-19 19:31N 47°40' W 122°24'0 0.0
2017-Jul-19 19:01N 47°40' W 122°24'0 0.0
2017-Jul-19 18:30N 47°40' W 122°24'0 0.0
2017-Jul-19 18:01N 47°40' W 122°24'0 0.0
2017-Jul-19 17:31N 47°40' W 122°24'0 0.0
2017-Jul-19 17:00N 47°40' W 122°24'0 0.0
2017-Jul-19 16:31N 47°40' W 122°24'0 0.0
2017-Jul-19 16:01N 47°40' W 122°24'0 0.0
2017-Jul-19 15:30N 47°40' W 122°24'0 0.0
2017-Jul-19 15:01N 47°40' W 122°24'0 0.0
2017-Jul-19 14:31N 47°40' W 122°24'0 0.0
2017-Jul-19 14:01N 47°40' W 122°24'0 0.0
2017-Jul-19 13:30N 47°40' W 122°24'0 0.0
2017-Jul-19 13:01N 47°40' W 122°24'0 0.0
2017-Jul-19 12:30N 47°40' W 122°24'0 0.0
2017-Jul-19 12:01N 47°40' W 122°24'0 0.0
2017-Jul-19 11:30N 47°40' W 122°24'0 0.0
2017-Jul-19 11:01N 47°40' W 122°24'0 0.0
2017-Jul-19 10:31N 47°40' W 122°24'0 0.0
2017-Jul-19 10:01N 47°40' W 122°24'0 0.0
2017-Jul-19 09:31N 47°40' W 122°24'0 0.0
2017-Jul-19 09:00N 47°40' W 122°24'0 0.0
2017-Jul-19 08:31N 47°40' W 122°24'0 0.0
2017-Jul-19 08:00N 47°40' W 122°24'0 0.0
2017-Jul-19 07:31N 47°40' W 122°24'0 0.0
2017-Jul-19 07:01N 47°40' W 122°24'0 0.0
2017-Jul-19 06:31N 47°40' W 122°24'0 0.0
2017-Jul-19 06:01N 47°40' W 122°24'0 0.0
2017-Jul-19 05:31N 47°40' W 122°24'0 0.0
2017-Jul-19 05:00N 47°40' W 122°24'0 0.0
2017-Jul-19 04:31N 47°40' W 122°24'0 0.0
2017-Jul-19 04:01N 47°40' W 122°24'0 0.0
2017-Jul-19 03:31N 47°40' W 122°24'0 0.0
2017-Jul-19 03:01N 47°40' W 122°24'0 0.0
2017-Jul-19 02:31N 47°40' W 122°24'0 0.0
2017-Jul-19 02:00N 47°40' W 122°24'0 0.0
2017-Jul-19 01:30N 47°40' W 122°24'0 0.0
2017-Jul-19 01:01N 47°40' W 122°24'0 0.0
2017-Jul-19 00:30N 47°40' W 122°24'0 0.0
2017-Jul-19 00:01N 47°40' W 122°24'0 0.0
2017-Jul-18 23:31N 47°40' W 122°24'0 0.0
2017-Jul-18 23:00N 47°40' W 122°24'0 0.0
2017-Jul-18 22:30N 47°40' W 122°24'0 0.0
2017-Jul-18 22:00N 47°40' W 122°24'0 0.0
2017-Jul-18 21:30N 47°40' W 122°24'0 0.0
2017-Jul-18 21:01N 47°40' W 122°24'0 0.0
2017-Jul-18 20:31N 47°40' W 122°24'0 0.0
2017-Jul-18 20:01N 47°40' W 122°24'0 0.0
2017-Jul-18 19:31N 47°40' W 122°24'0 0.0
2017-Jul-18 19:01N 47°40' W 122°24'0 0.0
2017-Jul-18 18:31N 47°40' W 122°24'0 0.0
2017-Jul-18 18:01N 47°40' W 122°24'0 0.0
2017-Jul-18 17:31N 47°40' W 122°24'0 0.0
2017-Jul-18 17:01N 47°40' W 122°24'0 0.0
2017-Jul-18 16:30N 47°40' W 122°24'0 0.0
2017-Jul-18 16:01N 47°40' W 122°24'0 0.0
2017-Jul-18 15:31N 47°40' W 122°24'0 0.0
2017-Jul-18 15:01N 47°40' W 122°24'0 0.0
2017-Jul-18 14:01N 47°40' W 122°24'0 0.0
2017-Jul-18 13:31N 47°40' W 122°24'0 0.0
2017-Jul-18 13:01N 47°40' W 122°24'0 0.0
2017-Jul-18 12:31N 47°40' W 122°24'0 0.0
2017-Jul-18 12:00N 47°40' W 122°24'0 0.0
2017-Jul-18 11:31N 47°40' W 122°24'0 0.0
2017-Jul-18 11:01N 47°40' W 122°24'0 0.0
2017-Jul-18 10:30N 47°40' W 122°24'0 0.0
2017-Jul-18 10:01N 47°40' W 122°24'0 0.0
2017-Jul-18 09:31N 47°40' W 122°24'0 0.0
2017-Jul-18 09:01N 47°40' W 122°24'0 0.0
2017-Jul-18 08:30N 47°40' W 122°24'0 0.0
2017-Jul-18 08:01N 47°40' W 122°24'0 0.0
2017-Jul-18 07:31N 47°40' W 122°24'0 0.0
2017-Jul-18 07:01N 47°40' W 122°24'0 0.0
2017-Jul-18 06:30N 47°40' W 122°24'0 0.0
2017-Jul-18 06:01N 47°40' W 122°24'0 0.0
2017-Jul-18 05:30N 47°40' W 122°24'0 0.0
2017-Jul-18 05:00N 47°40' W 122°24'0 0.0
2017-Jul-18 04:30N 47°40' W 122°24'0 0.0
2017-Jul-18 04:00N 47°40' W 122°24'0 0.0
2017-Jul-18 03:31N 47°40' W 122°24'0 0.0
2017-Jul-18 03:01N 47°40' W 122°24'0 0.0
2017-Jul-18 02:31N 47°40' W 122°24'0 0.0
2017-Jul-18 02:01N 47°40' W 122°24'0 0.0
2017-Jul-18 01:31N 47°40' W 122°24'0 0.0
2017-Jul-18 01:00N 47°40' W 122°24'0 0.0
2017-Jul-18 00:31N 47°40' W 122°24'0 0.0
2017-Jul-18 00:00N 47°40' W 122°24'0 0.0
2017-Jul-17 23:31N 47°40' W 122°24'0 0.0
2017-Jul-17 23:00N 47°40' W 122°24'0 0.0
2017-Jul-17 22:31N 47°40' W 122°24'0 0.0
2017-Jul-17 22:01N 47°40' W 122°24'0 0.0
2017-Jul-17 21:31N 47°40' W 122°24'0 0.0
2017-Jul-17 21:01N 47°40' W 122°24'0 0.0
2017-Jul-17 20:31N 47°40' W 122°24'0 0.0
2017-Jul-17 20:00N 47°40' W 122°24'0 0.0
2017-Jul-17 19:31N 47°40' W 122°24'0 0.0
2017-Jul-17 19:01N 47°40' W 122°24'0 0.0
2017-Jul-17 18:31N 47°40' W 122°24'0 0.0
2017-Jul-17 18:01N 47°40' W 122°24'0 0.0
2017-Jul-17 17:31N 47°40' W 122°24'0 0.0
2017-Jul-17 17:00N 47°40' W 122°24'0 0.0
2017-Jul-17 16:31N 47°40' W 122°24'0 0.0
2017-Jul-17 16:00N 47°40' W 122°24'0 0.0
2017-Jul-17 15:30N 47°40' W 122°24'0 0.0
2017-Jul-17 15:01N 47°40' W 122°24'0 0.0
2017-Jul-17 14:31N 47°40' W 122°24'0 0.0
2017-Jul-17 14:01N 47°40' W 122°24'0 0.0
2017-Jul-17 13:31N 47°40' W 122°24'0 0.0
2017-Jul-17 13:01N 47°40' W 122°24'0 0.0
2017-Jul-17 12:30N 47°40' W 122°24'0 0.0
2017-Jul-17 12:00N 47°40' W 122°24'0 0.0
2017-Jul-17 11:31N 47°40' W 122°24'0 0.0
2017-Jul-17 11:01N 47°40' W 122°24'0 0.0
2017-Jul-17 10:31N 47°40' W 122°24'0 0.0
2017-Jul-17 10:01N 47°40' W 122°24'0 0.0
2017-Jul-17 09:31N 47°40' W 122°24'0 0.0
2017-Jul-17 09:01N 47°40' W 122°24'0 0.0
2017-Jul-17 08:31N 47°40' W 122°24'0 0.0
2017-Jul-17 08:01N 47°40' W 122°24'0 0.0
2017-Jul-17 07:31N 47°40' W 122°24'0 0.0
2017-Jul-17 07:01N 47°40' W 122°24'0 0.0
2017-Jul-17 06:29N 47°40' W 122°24'0 0.0
2017-Jul-17 06:00N 47°40' W 122°24'0 0.0
2017-Jul-17 05:31N 47°40' W 122°24'0 0.0
2017-Jul-17 05:01N 47°40' W 122°24'0 0.0
2017-Jul-17 04:31N 47°40' W 122°24'0 0.0
2017-Jul-17 04:00N 47°40' W 122°24'0 0.0
2017-Jul-17 03:30N 47°40' W 122°24'0 0.0
2017-Jul-17 03:00N 47°40' W 122°24'0 0.0
2017-Jul-17 02:31N 47°40' W 122°24'0 0.0
2017-Jul-17 02:01N 47°40' W 122°24'0 0.0
2017-Jul-17 01:31N 47°40' W 122°24'0 0.0
2017-Jul-17 01:01N 47°40' W 122°24'0 0.0
2017-Jul-17 00:31N 47°40' W 122°24'0 0.0
2017-Jul-17 00:01N 47°40' W 122°24'0 0.0
2017-Jul-16 23:30N 47°40' W 122°24'0 0.0
2017-Jul-16 23:01N 47°40' W 122°24'0 0.0
2017-Jul-16 22:31N 47°40' W 122°24'0 0.0
2017-Jul-16 22:01N 47°40' W 122°24'0 0.0
2017-Jul-16 21:31N 47°40' W 122°24'0 0.0
2017-Jul-16 21:01N 47°40' W 122°24'0 0.0
2017-Jul-16 20:31N 47°40' W 122°24'0 0.0
2017-Jul-16 20:01N 47°40' W 122°24'0 0.0
2017-Jul-16 19:31N 47°40' W 122°24'0 0.0
2017-Jul-16 19:00N 47°40' W 122°24'0 0.0
2017-Jul-16 18:31N 47°40' W 122°24'0 0.0
2017-Jul-16 18:01N 47°40' W 122°24'0 0.0
2017-Jul-16 17:30N 47°40' W 122°24'0 0.0
2017-Jul-16 17:01N 47°40' W 122°24'0 0.0
2017-Jul-16 16:31N 47°40' W 122°24'0 0.0
2017-Jul-16 16:00N 47°40' W 122°24'0 0.0
2017-Jul-16 15:31N 47°40' W 122°24'0 0.0
2017-Jul-16 15:01N 47°40' W 122°24'0 0.0
2017-Jul-16 14:30N 47°40' W 122°24'0 0.0
2017-Jul-16 14:01N 47°40' W 122°24'0 0.0
2017-Jul-16 13:31N 47°40' W 122°24'0 0.0
2017-Jul-16 13:01N 47°40' W 122°24'0 0.0
2017-Jul-16 12:31N 47°40' W 122°24'0 0.0
2017-Jul-16 12:00N 47°40' W 122°24'0 0.0
2017-Jul-16 11:31N 47°40' W 122°24'0 0.0
2017-Jul-16 11:01N 47°40' W 122°24'0 0.0
2017-Jul-16 10:31N 47°40' W 122°24'0 0.0
2017-Jul-16 10:00N 47°40' W 122°24'0 0.0
2017-Jul-16 09:30N 47°40' W 122°24'0 0.0
2017-Jul-16 09:00N 47°40' W 122°24'0 0.0
2017-Jul-16 08:30N 47°40' W 122°24'0 0.0
2017-Jul-16 08:01N 47°40' W 122°24'0 0.0
2017-Jul-16 07:30N 47°40' W 122°24'0 0.0
2017-Jul-16 07:01N 47°40' W 122°24'0 0.0
2017-Jul-16 06:31N 47°40' W 122°24'0 0.0
2017-Jul-16 06:01N 47°40' W 122°24'0 0.0
2017-Jul-16 05:31N 47°40' W 122°24'0 0.0
2017-Jul-16 05:01N 47°40' W 122°24'0 0.0
2017-Jul-16 04:31N 47°40' W 122°24'0 0.0
2017-Jul-16 04:01N 47°40' W 122°24'0 0.0
2017-Jul-16 03:31N 47°40' W 122°24'0 0.0
2017-Jul-16 03:01N 47°40' W 122°24'0 0.0
2017-Jul-16 02:30N 47°40' W 122°24'0 0.0
2017-Jul-16 02:01N 47°40' W 122°24'0 0.0
2017-Jul-16 01:30N 47°40' W 122°24'0 0.0
2017-Jul-16 01:01N 47°40' W 122°24'0 0.0
2017-Jul-16 00:31N 47°40' W 122°24'0 0.0
2017-Jul-16 00:01N 47°40' W 122°24'0 0.0
2017-Jul-15 23:31N 47°40' W 122°24'0 0.0
2017-Jul-15 23:01N 47°40' W 122°24'0 0.0
2017-Jul-15 22:31N 47°40' W 122°24'0 0.0
2017-Jul-15 22:01N 47°40' W 122°24'0 0.0
2017-Jul-15 21:31N 47°40' W 122°24'0 0.0
2017-Jul-15 21:01N 47°40' W 122°24'0 0.0
2017-Jul-15 20:31N 47°40' W 122°24'0 0.0
2017-Jul-15 20:01N 47°40' W 122°24'0 0.0
2017-Jul-15 19:31N 47°40' W 122°24'0 0.0
2017-Jul-15 19:00N 47°40' W 122°24'0 0.0
2017-Jul-15 18:31N 47°40' W 122°24'0 0.0
2017-Jul-15 18:01N 47°40' W 122°24'0 0.0
2017-Jul-15 17:31N 47°40' W 122°24'0 0.0
2017-Jul-15 17:01N 47°40' W 122°24'0 0.0
2017-Jul-15 16:31N 47°40' W 122°24'0 0.0
2017-Jul-15 16:01N 47°40' W 122°24'0 0.0
2017-Jul-15 15:30N 47°40' W 122°24'0 0.0
2017-Jul-15 15:01N 47°40' W 122°24'0 0.0
2017-Jul-15 14:01N 47°40' W 122°24'0 0.0
2017-Jul-15 13:30N 47°40' W 122°24'0 0.0
2017-Jul-15 13:00N 47°40' W 122°24'0 0.0
2017-Jul-15 12:31N 47°40' W 122°24'0 0.0
2017-Jul-15 12:01N 47°40' W 122°24'0 0.0
2017-Jul-15 11:31N 47°40' W 122°24'0 0.0
2017-Jul-15 11:01N 47°40' W 122°24'0 0.0
2017-Jul-15 10:31N 47°40' W 122°24'0 0.0
2017-Jul-15 10:01N 47°40' W 122°24'0 0.0
2017-Jul-15 09:31N 47°40' W 122°24'0 0.0
2017-Jul-15 09:01N 47°40' W 122°24'0 0.0
2017-Jul-15 08:30N 47°40' W 122°24'0 0.0
2017-Jul-15 08:00N 47°40' W 122°24'0 0.0
2017-Jul-15 07:31N 47°40' W 122°24'0 0.0
2017-Jul-15 07:01N 47°40' W 122°24'0 0.0
2017-Jul-15 06:31N 47°40' W 122°24'0 0.0
2017-Jul-15 06:01N 47°40' W 122°24'0 0.0
2017-Jul-15 05:31N 47°40' W 122°24'0 0.0
2017-Jul-15 05:01N 47°40' W 122°24'0 0.0
2017-Jul-15 04:31N 47°40' W 122°24'0 0.0
2017-Jul-15 04:01N 47°40' W 122°24'0 0.0
2017-Jul-15 03:31N 47°40' W 122°24'0 0.0
2017-Jul-15 03:01N 47°40' W 122°24'0 0.0
2017-Jul-15 02:31N 47°40' W 122°24'0 0.0
2017-Jul-15 02:00N 47°40' W 122°24'0 0.0
2017-Jul-15 01:31N 47°40' W 122°24'0 0.0
2017-Jul-15 01:01N 47°40' W 122°24'0 0.0
2017-Jul-15 00:31N 47°40' W 122°24'0 0.0
2017-Jul-15 00:01N 47°40' W 122°24'0 0.0
2017-Jul-14 23:30N 47°40' W 122°24'0 0.0
2017-Jul-14 23:01N 47°40' W 122°24'0 0.0
2017-Jul-14 22:30N 47°40' W 122°24'0 0.0
2017-Jul-14 22:00N 47°40' W 122°24'0 0.0
2017-Jul-14 21:31N 47°40' W 122°24'0 0.0
2017-Jul-14 21:01N 47°40' W 122°24'0 0.0
2017-Jul-14 20:31N 47°40' W 122°24'0 0.0
2017-Jul-14 20:01N 47°40' W 122°24'0 0.0
2017-Jul-14 19:31N 47°40' W 122°24'0 0.0
2017-Jul-14 19:01N 47°40' W 122°24'0 0.0
2017-Jul-14 18:30N 47°40' W 122°24'0 0.0
2017-Jul-14 18:00N 47°40' W 122°24'0 0.0
2017-Jul-14 17:31N 47°40' W 122°24'0 0.0
2017-Jul-14 17:01N 47°40' W 122°24'  
Track history (hours):
 
Tides and Currents Weather Stations Pressure Air Temp Water Temp Dewpoint Dewpoint Depression Visibility Wind Speed Wind Dir Waves Ship Positions

Courageous

Last reported at 2017-Jul-24 11:46 UTC. Time now 2017-Oct-18 15:04 UTC.
Position N 48°58' W 126°30'.
Warning: this ship's position is months out of date.

Length 54 m; draft 6 m.

Type: Ship (hazmat cat B). MMSI: 368499000.

Date/timePositionNaut miles runAvg speedWind from/ knotsBaromVisibWave heightAir tempDewpointWater temp
2017-Jul-24 11:46N 48°58' W 126°30'2 8.0
2017-Jul-24 11:29N 48°57' W 126°27'4 8.1
2017-Jul-24 11:00N 48°56' W 126°22'4 8.5
2017-Jul-24 10:30N 48°54' W 126°16'4 8.6
2017-Jul-24 10:01N 48°52' W 126°10'4 8.7
2017-Jul-24 09:31N 48°50' W 126°05'5 9.0
2017-Jul-24 09:00N 48°48' W 125°58'5 9.2
2017-Jul-24 08:31N 48°46' W 125°52'4 8.8
2017-Jul-24 08:01N 48°44' W 125°46'4 8.9
2017-Jul-24 07:31N 48°42' W 125°40'5 9.0
2017-Jul-24 06:59N 48°40' W 125°34'4 9.0
2017-Jul-24 06:31N 48°37' W 125°28'6 9.2
2017-Jul-24 05:51N 48°34' W 125°21'5 9.2
2017-Jul-24 05:17N 48°32' W 125°13'3 9.4
2017-Jul-24 04:59N 48°31' W 125°09'4 9.5
2017-Jul-24 04:31N 48°31' W 125°03'5 9.9
2017-Jul-24 04:01N 48°31' W 124°55'510.1
2017-Jul-24 03:30N 48°31' W 124°48'5 9.9
2017-Jul-24 03:01N 48°30' W 124°40'510.4
2017-Jul-24 02:31N 48°28' W 124°33'510.2
2017-Jul-24 02:00N 48°26' W 124°26'510.1
2017-Jul-24 01:30N 48°24' W 124°19'5 9.4
2017-Jul-24 01:01N 48°22' W 124°12'4 8.9
2017-Jul-24 00:31N 48°20' W 124°06'5 9.0
2017-Jul-24 00:00N 48°18' W 124°00'5 9.0
2017-Jul-23 23:30N 48°17' W 123°53'5 8.9
2017-Jul-23 22:59N 48°16' W 123°47'4 9.0
2017-Jul-23 22:30N 48°16' W 123°40'4 8.6
2017-Jul-23 21:59N 48°15' W 123°33'5 8.6
2017-Jul-23 21:26N 48°15' W 123°26'4 9.2
2017-Jul-23 21:00N 48°14' W 123°20'5 9.7
2017-Jul-23 20:30N 48°13' W 123°13'510.1
2017-Jul-23 20:01N 48°13' W 123°06'610.8
2017-Jul-23 19:28N 48°12' W 122°57'711.7
2017-Jul-23 18:53N 48°11' W 122°47'1311.6
2017-Jul-23 17:43N 47°60' W 122°36'312.3
2017-Jul-23 17:31N 47°58' W 122°34'611.6
2017-Jul-23 17:01N 47°53' W 122°28'611.4
2017-Jul-23 16:30N 47°48' W 122°26'611.1
2017-Jul-23 16:01N 47°42' W 122°26'3 5.3
2017-Jul-23 15:31N 47°40' W 122°24'0 0.4
2017-Jul-23 15:01N 47°40' W 122°24'0 0.0
2017-Jul-23 14:31N 47°40' W 122°24'0 0.0
2017-Jul-23 14:01N 47°40' W 122°24'0 0.0
2017-Jul-23 13:31N 47°40' W 122°24'0 0.0
2017-Jul-23 13:00N 47°40' W 122°24'0 0.0
2017-Jul-23 12:31N 47°40' W 122°24'0 0.0
2017-Jul-23 12:00N 47°40' W 122°24'0 0.0
2017-Jul-23 11:31N 47°40' W 122°24'0 0.0
2017-Jul-23 11:00N 47°40' W 122°24'0 0.0
2017-Jul-23 10:30N 47°40' W 122°24'0 0.0
2017-Jul-23 10:01N 47°40' W 122°24'0 0.0
2017-Jul-23 09:30N 47°40' W 122°24'0 0.0
2017-Jul-23 09:00N 47°40' W 122°24'0 0.0
2017-Jul-23 08:30N 47°40' W 122°24'0 0.0
2017-Jul-23 08:01N 47°40' W 122°24'0 0.0
2017-Jul-23 07:30N 47°40' W 122°24'0 0.0
2017-Jul-23 07:01N 47°40' W 122°24'0 0.0
2017-Jul-23 06:31N 47°40' W 122°24'0 0.0
2017-Jul-23 06:00N 47°40' W 122°24'0 0.0
2017-Jul-23 05:30N 47°40' W 122°24'0 0.0
2017-Jul-23 05:00N 47°40' W 122°24'0 0.0
2017-Jul-23 04:31N 47°40' W 122°24'0 0.0
2017-Jul-23 04:01N 47°40' W 122°24'0 0.0
2017-Jul-23 03:31N 47°40' W 122°24'0 0.0
2017-Jul-23 03:01N 47°40' W 122°24'0 0.0
2017-Jul-23 02:31N 47°40' W 122°24'0 0.0
2017-Jul-23 02:00N 47°40' W 122°24'0 0.0
2017-Jul-23 01:31N 47°40' W 122°24'0 0.0
2017-Jul-23 01:01N 47°40' W 122°24'0 0.0
2017-Jul-23 00:31N 47°40' W 122°24'0 0.0
2017-Jul-23 00:00N 47°40' W 122°24'0 0.0
2017-Jul-22 23:31N 47°40' W 122°24'0 0.0
2017-Jul-22 23:00N 47°40' W 122°24'0 0.0
2017-Jul-22 22:30N 47°40' W 122°24'0 0.0
2017-Jul-22 22:00N 47°40' W 122°24'0 0.0
2017-Jul-22 21:31N 47°40' W 122°24'0 0.1
2017-Jul-22 21:01N 47°40' W 122°24'0 0.6
2017-Jul-22 20:31N 47°40' W 122°23'0 0.0
2017-Jul-22 20:01N 47°40' W 122°23'0 0.0
2017-Jul-22 19:31N 47°40' W 122°23'0 0.0
2017-Jul-22 19:01N 47°40' W 122°23'0 0.0
2017-Jul-22 18:31N 47°40' W 122°23'0 0.0
2017-Jul-22 18:01N 47°40' W 122°23'0 0.0
2017-Jul-22 17:31N 47°40' W 122°23'0 0.0
2017-Jul-22 17:01N 47°40' W 122°23'0 0.0
2017-Jul-22 16:30N 47°40' W 122°23'0 0.0
2017-Jul-22 16:00N 47°40' W 122°23'0 0.0
2017-Jul-22 15:31N 47°40' W 122°23'0 0.0
2017-Jul-22 15:01N 47°40' W 122°23'0 0.3
2017-Jul-22 14:01N 47°40' W 122°24'0 0.0
2017-Jul-22 13:31N 47°40' W 122°24'0 0.0
2017-Jul-22 13:01N 47°40' W 122°24'0 0.0
2017-Jul-22 12:30N 47°40' W 122°24'0 0.0
2017-Jul-22 12:01N 47°40' W 122°24'0 0.0
2017-Jul-22 11:30N 47°40' W 122°24'0 0.0
2017-Jul-22 11:01N 47°40' W 122°24'0 0.0
2017-Jul-22 10:31N 47°40' W 122°24'0 0.0
2017-Jul-22 10:01N 47°40' W 122°24'0 0.0
2017-Jul-22 09:31N 47°40' W 122°24'0 0.0
2017-Jul-22 09:01N 47°40' W 122°24'0 0.0
2017-Jul-22 08:31N 47°40' W 122°24'0 0.0
2017-Jul-22 08:00N 47°40' W 122°24'0 0.0
2017-Jul-22 07:31N 47°40' W 122°24'0 0.0
2017-Jul-22 07:00N 47°40' W 122°24'0 0.0
2017-Jul-22 06:30N 47°40' W 122°24'0 0.0
2017-Jul-22 06:01N 47°40' W 122°24'0 0.0
2017-Jul-22 05:31N 47°40' W 122°24'0 0.0
2017-Jul-22 05:01N 47°40' W 122°24'0 0.0
2017-Jul-22 04:30N 47°40' W 122°24'0 0.0
2017-Jul-22 04:01N 47°40' W 122°24'0 0.0
2017-Jul-22 03:31N 47°40' W 122°24'0 0.0
2017-Jul-22 03:00N 47°40' W 122°24'0 0.0
2017-Jul-22 02:31N 47°40' W 122°24'0 0.0
2017-Jul-22 02:00N 47°40' W 122°24'0 0.0
2017-Jul-22 01:31N 47°40' W 122°24'0 0.0
2017-Jul-22 01:01N 47°40' W 122°24'0 0.0
2017-Jul-22 00:31N 47°40' W 122°24'0 0.0
2017-Jul-22 00:00N 47°40' W 122°24'0 0.0
2017-Jul-21 23:31N 47°40' W 122°24'0 0.0
2017-Jul-21 23:01N 47°40' W 122°24'0 0.0
2017-Jul-21 22:31N 47°40' W 122°24'0 0.0
2017-Jul-21 22:01N 47°40' W 122°24'0 0.0
2017-Jul-21 21:29N 47°40' W 122°24'0 0.0
2017-Jul-21 21:00N 47°40' W 122°24'0 0.0
2017-Jul-21 20:22N 47°40' W 122°24'0 0.0
2017-Jul-21 19:55N 47°40' W 122°24'0 0.0
2017-Jul-21 19:30N 47°40' W 122°24'0 0.0
2017-Jul-21 18:59N 47°40' W 122°24'0 0.0
2017-Jul-21 18:30N 47°40' W 122°24'0 0.0
2017-Jul-21 17:58N 47°40' W 122°24'0 0.0
2017-Jul-21 17:30N 47°40' W 122°24'0 0.0
2017-Jul-21 16:59N 47°40' W 122°24'0 0.0
2017-Jul-21 16:29N 47°40' W 122°24'0 0.0
2017-Jul-21 15:58N 47°40' W 122°24'0 0.0
2017-Jul-21 15:27N 47°40' W 122°24'0 0.0
2017-Jul-21 14:33N 47°40' W 122°24'0 0.0
2017-Jul-21 14:27N 47°40' W 122°24'0 0.0
2017-Jul-21 13:56N 47°40' W 122°24'0 0.0
2017-Jul-21 13:30N 47°40' W 122°24'0 0.0
2017-Jul-21 12:59N 47°40' W 122°24'0 0.0
2017-Jul-21 12:26N 47°40' W 122°24'0 0.0
2017-Jul-21 11:57N 47°40' W 122°24'0 0.0
2017-Jul-21 11:23N 47°40' W 122°24'0 0.0
2017-Jul-21 10:58N 47°40' W 122°24'0 0.0
2017-Jul-21 10:26N 47°40' W 122°24'0 0.0
2017-Jul-21 10:01N 47°40' W 122°24'0 0.0
2017-Jul-21 09:30N 47°40' W 122°24'0 0.0
2017-Jul-21 09:01N 47°40' W 122°24'0 0.0
2017-Jul-21 08:31N 47°40' W 122°24'0 0.0
2017-Jul-21 08:01N 47°40' W 122°24'0 0.0
2017-Jul-21 07:31N 47°40' W 122°24'0 0.0
2017-Jul-21 07:00N 47°40' W 122°24'0 0.0
2017-Jul-21 06:31N 47°40' W 122°24'0 0.0
2017-Jul-21 06:00N 47°40' W 122°24'0 0.0
2017-Jul-21 05:31N 47°40' W 122°24'0 0.0
2017-Jul-21 05:01N 47°40' W 122°24'0 0.0
2017-Jul-21 04:31N 47°40' W 122°24'0 0.0
2017-Jul-21 04:01N 47°40' W 122°24'0 0.0
2017-Jul-21 03:30N 47°40' W 122°24'0 0.0
2017-Jul-21 03:01N 47°40' W 122°24'0 0.0
2017-Jul-21 02:31N 47°40' W 122°24'0 0.0
2017-Jul-21 02:00N 47°40' W 122°24'0 0.0
2017-Jul-21 01:31N 47°40' W 122°24'0 0.0
2017-Jul-21 01:01N 47°40' W 122°24'0 0.0
2017-Jul-21 00:31N 47°40' W 122°24'0 0.0
2017-Jul-21 00:01N 47°40' W 122°24'0 0.0
2017-Jul-20 23:31N 47°40' W 122°24'0 0.0
2017-Jul-20 23:00N 47°40' W 122°24'0 0.0
2017-Jul-20 22:31N 47°40' W 122°24'0 0.0
2017-Jul-20 22:01N 47°40' W 122°24'0 0.0
2017-Jul-20 21:30N 47°40' W 122°24'0 0.0
2017-Jul-20 21:01N 47°40' W 122°24'0 0.0
2017-Jul-20 20:31N 47°40' W 122°24'0 0.0
2017-Jul-20 20:00N 47°40' W 122°24'0 0.0
2017-Jul-20 19:31N 47°40' W 122°24'0 0.0
2017-Jul-20 19:01N 47°40' W 122°24'0 0.0
2017-Jul-20 18:31N 47°40' W 122°24'0 0.0
2017-Jul-20 18:01N 47°40' W 122°24'0 0.0
2017-Jul-20 17:31N 47°40' W 122°24'0 0.0
2017-Jul-20 17:01N 47°40' W 122°24'0 0.0
2017-Jul-20 16:31N 47°40' W 122°24'0 0.0
2017-Jul-20 16:00N 47°40' W 122°24'0 0.0
2017-Jul-20 15:31N 47°40' W 122°24'0 0.0
2017-Jul-20 15:01N 47°40' W 122°24'0 0.0
2017-Jul-20 14:01N 47°40' W 122°24'0 0.0
2017-Jul-20 13:30N 47°40' W 122°24'0 0.0
2017-Jul-20 13:01N 47°40' W 122°24'0 0.0
2017-Jul-20 12:31N 47°40' W 122°24'0 0.0
2017-Jul-20 12:01N 47°40' W 122°24'0 0.0
2017-Jul-20 11:31N 47°40' W 122°24'0 0.0
2017-Jul-20 11:00N 47°40' W 122°24'0 0.0
2017-Jul-20 10:30N 47°40' W 122°24'0 0.0
2017-Jul-20 10:01N 47°40' W 122°24'0 0.0
2017-Jul-20 09:31N 47°40' W 122°24'0 0.0
2017-Jul-20 09:01N 47°40' W 122°24'0 0.0
2017-Jul-20 08:31N 47°40' W 122°24'0 0.0
2017-Jul-20 08:00N 47°40' W 122°24'0 0.0
2017-Jul-20 07:30N 47°40' W 122°24'0 0.0
2017-Jul-20 07:01N 47°40' W 122°24'0 0.0
2017-Jul-20 06:30N 47°40' W 122°24'0 0.0
2017-Jul-20 06:01N 47°40' W 122°24'0 0.0
2017-Jul-20 05:30N 47°40' W 122°24'0 0.0
2017-Jul-20 05:00N 47°40' W 122°24'0 0.0
2017-Jul-20 04:30N 47°40' W 122°24'0 0.0
2017-Jul-20 04:01N 47°40' W 122°24'0 0.0
2017-Jul-20 03:30N 47°40' W 122°24'0 0.0
2017-Jul-20 03:01N 47°40' W 122°24'0 0.0
2017-Jul-20 02:30N 47°40' W 122°24'0 0.0
2017-Jul-20 02:01N 47°40' W 122°24'0 0.0
2017-Jul-20 01:30N 47°40' W 122°24'0 0.0
2017-Jul-20 01:01N 47°40' W 122°24'0 0.0
2017-Jul-20 00:31N 47°40' W 122°24'0 0.0
2017-Jul-20 00:00N 47°40' W 122°24'0 0.0
2017-Jul-19 23:30N 47°40' W 122°24'0 0.0
2017-Jul-19 23:01N 47°40' W 122°24'0 0.0
2017-Jul-19 22:31N 47°40' W 122°24'0 0.0
2017-Jul-19 22:00N 47°40' W 122°24'0 0.0
2017-Jul-19 21:31N 47°40' W 122°24'0 0.0
2017-Jul-19 21:01N 47°40' W 122°24'0 0.0
2017-Jul-19 20:31N 47°40' W 122°24'0 0.0
2017-Jul-19 20:01N 47°40' W 122°24'0 0.0
2017-Jul-19 19:31N 47°40' W 122°24'0 0.0
2017-Jul-19 19:01N 47°40' W 122°24'0 0.0
2017-Jul-19 18:30N 47°40' W 122°24'0 0.0
2017-Jul-19 18:01N 47°40' W 122°24'0 0.0
2017-Jul-19 17:31N 47°40' W 122°24'0 0.0
2017-Jul-19 17:00N 47°40' W 122°24'0 0.0
2017-Jul-19 16:31N 47°40' W 122°24'0 0.0
2017-Jul-19 16:01N 47°40' W 122°24'0 0.0
2017-Jul-19 15:30N 47°40' W 122°24'0 0.0
2017-Jul-19 15:01N 47°40' W 122°24'0 0.0
2017-Jul-19 14:31N 47°40' W 122°24'0 0.0
2017-Jul-19 14:01N 47°40' W 122°24'0 0.0
2017-Jul-19 13:30N 47°40' W 122°24'0 0.0
2017-Jul-19 13:01N 47°40' W 122°24'0 0.0
2017-Jul-19 12:30N 47°40' W 122°24'0 0.0
2017-Jul-19 12:01N 47°40' W 122°24'0 0.0
2017-Jul-19 11:30N 47°40' W 122°24'0 0.0
2017-Jul-19 11:01N 47°40' W 122°24'0 0.0
2017-Jul-19 10:31N 47°40' W 122°24'0 0.0
2017-Jul-19 10:01N 47°40' W 122°24'0 0.0
2017-Jul-19 09:31N 47°40' W 122°24'0 0.0
2017-Jul-19 09:00N 47°40' W 122°24'0 0.0
2017-Jul-19 08:31N 47°40' W 122°24'0 0.0
2017-Jul-19 08:00N 47°40' W 122°24'0 0.0
2017-Jul-19 07:31N 47°40' W 122°24'0 0.0
2017-Jul-19 07:01N 47°40' W 122°24'0 0.0
2017-Jul-19 06:31N 47°40' W 122°24'0 0.0
2017-Jul-19 06:01N 47°40' W 122°24'0 0.0
2017-Jul-19 05:31N 47°40' W 122°24'0 0.0
2017-Jul-19 05:00N 47°40' W 122°24'0 0.0
2017-Jul-19 04:31N 47°40' W 122°24'0 0.0
2017-Jul-19 04:01N 47°40' W 122°24'0 0.0
2017-Jul-19 03:31N 47°40' W 122°24'0 0.0
2017-Jul-19 03:01N 47°40' W 122°24'0 0.0
2017-Jul-19 02:31N 47°40' W 122°24'0 0.0
2017-Jul-19 02:00N 47°40' W 122°24'0 0.0
2017-Jul-19 01:30N 47°40' W 122°24'0 0.0
2017-Jul-19 01:01N 47°40' W 122°24'0 0.0
2017-Jul-19 00:30N 47°40' W 122°24'0 0.0
2017-Jul-19 00:01N 47°40' W 122°24'0 0.0
2017-Jul-18 23:31N 47°40' W 122°24'0 0.0
2017-Jul-18 23:00N 47°40' W 122°24'0 0.0
2017-Jul-18 22:30N 47°40' W 122°24'0 0.0
2017-Jul-18 22:00N 47°40' W 122°24'0 0.0
2017-Jul-18 21:30N 47°40' W 122°24'0 0.0
2017-Jul-18 21:01N 47°40' W 122°24'0 0.0
2017-Jul-18 20:31N 47°40' W 122°24'0 0.0
2017-Jul-18 20:01N 47°40' W 122°24'0 0.0
2017-Jul-18 19:31N 47°40' W 122°24'0 0.0
2017-Jul-18 19:01N 47°40' W 122°24'0 0.0
2017-Jul-18 18:31N 47°40' W 122°24'0 0.0
2017-Jul-18 18:01N 47°40' W 122°24'0 0.0
2017-Jul-18 17:31N 47°40' W 122°24'0 0.0
2017-Jul-18 17:01N 47°40' W 122°24'0 0.0
2017-Jul-18 16:30N 47°40' W 122°24'0 0.0
2017-Jul-18 16:01N 47°40' W 122°24'0 0.0
2017-Jul-18 15:31N 47°40' W 122°24'0 0.0
2017-Jul-18 15:01N 47°40' W 122°24'0 0.0
2017-Jul-18 14:01N 47°40' W 122°24'0 0.0
2017-Jul-18 13:31N 47°40' W 122°24'0 0.0
2017-Jul-18 13:01N 47°40' W 122°24'0 0.0
2017-Jul-18 12:31N 47°40' W 122°24'0 0.0
2017-Jul-18 12:00N 47°40' W 122°24'0 0.0
2017-Jul-18 11:31N 47°40' W 122°24'0 0.0
2017-Jul-18 11:01N 47°40' W 122°24'0 0.0
2017-Jul-18 10:30N 47°40' W 122°24'0 0.0
2017-Jul-18 10:01N 47°40' W 122°24'0 0.0
2017-Jul-18 09:31N 47°40' W 122°24'0 0.0
2017-Jul-18 09:01N 47°40' W 122°24'0 0.0
2017-Jul-18 08:30N 47°40' W 122°24'0 0.0
2017-Jul-18 08:01N 47°40' W 122°24'0 0.0
2017-Jul-18 07:31N 47°40' W 122°24'0 0.0
2017-Jul-18 07:01N 47°40' W 122°24'0 0.0
2017-Jul-18 06:30N 47°40' W 122°24'0 0.0
2017-Jul-18 06:01N 47°40' W 122°24'0 0.0
2017-Jul-18 05:30N 47°40' W 122°24'0 0.0
2017-Jul-18 05:00N 47°40' W 122°24'0 0.0
2017-Jul-18 04:30N 47°40' W 122°24'0 0.0
2017-Jul-18 04:00N 47°40' W 122°24'0 0.0
2017-Jul-18 03:31N 47°40' W 122°24'0 0.0
2017-Jul-18 03:01N 47°40' W 122°24'0 0.0
2017-Jul-18 02:31N 47°40' W 122°24'0 0.0
2017-Jul-18 02:01N 47°40' W 122°24'0 0.0
2017-Jul-18 01:31N 47°40' W 122°24'0 0.0
2017-Jul-18 01:00N 47°40' W 122°24'0 0.0
2017-Jul-18 00:31N 47°40' W 122°24'0 0.0
2017-Jul-18 00:00N 47°40' W 122°24'0 0.0
2017-Jul-17 23:31N 47°40' W 122°24'0 0.0
2017-Jul-17 23:00N 47°40' W 122°24'0 0.0
2017-Jul-17 22:31N 47°40' W 122°24'0 0.0
2017-Jul-17 22:01N 47°40' W 122°24'0 0.0
2017-Jul-17 21:31N 47°40' W 122°24'0 0.0
2017-Jul-17 21:01N 47°40' W 122°24'0 0.0
2017-Jul-17 20:31N 47°40' W 122°24'0 0.0
2017-Jul-17 20:00N 47°40' W 122°24'0 0.0
2017-Jul-17 19:31N 47°40' W 122°24'0 0.0
2017-Jul-17 19:01N 47°40' W 122°24'0 0.0
2017-Jul-17 18:31N 47°40' W 122°24'0 0.0
2017-Jul-17 18:01N 47°40' W 122°24'0 0.0
2017-Jul-17 17:31N 47°40' W 122°24'0 0.0
2017-Jul-17 17:00N 47°40' W 122°24'0 0.0
2017-Jul-17 16:31N 47°40' W 122°24'0 0.0
2017-Jul-17 16:00N 47°40' W 122°24'0 0.0
2017-Jul-17 15:30N 47°40' W 122°24'0 0.0
2017-Jul-17 15:01N 47°40' W 122°24'0 0.0
2017-Jul-17 14:31N 47°40' W 122°24'0 0.0
2017-Jul-17 14:01N 47°40' W 122°24'0 0.0
2017-Jul-17 13:31N 47°40' W 122°24'0 0.0
2017-Jul-17 13:01N 47°40' W 122°24'0 0.0
2017-Jul-17 12:30N 47°40' W 122°24'0 0.0
2017-Jul-17 12:00N 47°40' W 122°24'0 0.0
2017-Jul-17 11:31N 47°40' W 122°24'0 0.0
2017-Jul-17 11:01N 47°40' W 122°24'0 0.0
2017-Jul-17 10:31N 47°40' W 122°24'0 0.0
2017-Jul-17 10:01N 47°40' W 122°24'0 0.0
2017-Jul-17 09:31N 47°40' W 122°24'0 0.0
2017-Jul-17 09:01N 47°40' W 122°24'0 0.0
2017-Jul-17 08:31N 47°40' W 122°24'0 0.0
2017-Jul-17 08:01N 47°40' W 122°24'0 0.0
2017-Jul-17 07:31N 47°40' W 122°24'0 0.0
2017-Jul-17 07:01N 47°40' W 122°24'0 0.0
2017-Jul-17 06:29N 47°40' W 122°24'0 0.0
2017-Jul-17 06:00N 47°40' W 122°24'0 0.0
2017-Jul-17 05:31N 47°40' W 122°24'0 0.0
2017-Jul-17 05:01N 47°40' W 122°24'0 0.0
2017-Jul-17 04:31N 47°40' W 122°24'0 0.0
2017-Jul-17 04:00N 47°40' W 122°24'0 0.0
2017-Jul-17 03:30N 47°40' W 122°24'0 0.0
2017-Jul-17 03:00N 47°40' W 122°24'0 0.0
2017-Jul-17 02:31N 47°40' W 122°24'0 0.0
2017-Jul-17 02:01N 47°40' W 122°24'0 0.0
2017-Jul-17 01:31N 47°40' W 122°24'0 0.0
2017-Jul-17 01:01N 47°40' W 122°24'0 0.0
2017-Jul-17 00:31N 47°40' W 122°24'0 0.0
2017-Jul-17 00:01N 47°40' W 122°24'0 0.0
2017-Jul-16 23:30N 47°40' W 122°24'0 0.0
2017-Jul-16 23:01N 47°40' W 122°24'0 0.0
2017-Jul-16 22:31N 47°40' W 122°24'0 0.0
2017-Jul-16 22:01N 47°40' W 122°24'0 0.0
2017-Jul-16 21:31N 47°40' W 122°24'0 0.0
2017-Jul-16 21:01N 47°40' W 122°24'0 0.0
2017-Jul-16 20:31N 47°40' W 122°24'0 0.0
2017-Jul-16 20:01N 47°40' W 122°24'0 0.0
2017-Jul-16 19:31N 47°40' W 122°24'0 0.0
2017-Jul-16 19:00N 47°40' W 122°24'0 0.0
2017-Jul-16 18:31N 47°40' W 122°24'0 0.0
2017-Jul-16 18:01N 47°40' W 122°24'0 0.0
2017-Jul-16 17:30N 47°40' W 122°24'0 0.0
2017-Jul-16 17:01N 47°40' W 122°24'0 0.0
2017-Jul-16 16:31N 47°40' W 122°24'0 0.0
2017-Jul-16 16:00N 47°40' W 122°24'0 0.0
2017-Jul-16 15:31N 47°40' W 122°24'0 0.0
2017-Jul-16 15:01N 47°40' W 122°24'0 0.0
2017-Jul-16 14:30N 47°40' W 122°24'0 0.0
2017-Jul-16 14:01N 47°40' W 122°24'0 0.0
2017-Jul-16 13:31N 47°40' W 122°24'0 0.0
2017-Jul-16 13:01N 47°40' W 122°24'0 0.0
2017-Jul-16 12:31N 47°40' W 122°24'0 0.0
2017-Jul-16 12:00N 47°40' W 122°24'0 0.0
2017-Jul-16 11:31N 47°40' W 122°24'0 0.0
2017-Jul-16 11:01N 47°40' W 122°24'0 0.0
2017-Jul-16 10:31N 47°40' W 122°24'0 0.0
2017-Jul-16 10:00N 47°40' W 122°24'0 0.0
2017-Jul-16 09:30N 47°40' W 122°24'0 0.0
2017-Jul-16 09:00N 47°40' W 122°24'0 0.0
2017-Jul-16 08:30N 47°40' W 122°24'0 0.0
2017-Jul-16 08:01N 47°40' W 122°24'0 0.0
2017-Jul-16 07:30N 47°40' W 122°24'0 0.0
2017-Jul-16 07:01N 47°40' W 122°24'0 0.0
2017-Jul-16 06:31N 47°40' W 122°24'0 0.0
2017-Jul-16 06:01N 47°40' W 122°24'0 0.0
2017-Jul-16 05:31N 47°40' W 122°24'0 0.0
2017-Jul-16 05:01N 47°40' W 122°24'0 0.0
2017-Jul-16 04:31N 47°40' W 122°24'0 0.0
2017-Jul-16 04:01N 47°40' W 122°24'0 0.0
2017-Jul-16 03:31N 47°40' W 122°24'0 0.0
2017-Jul-16 03:01N 47°40' W 122°24'0 0.0
2017-Jul-16 02:30N 47°40' W 122°24'0 0.0
2017-Jul-16 02:01N 47°40' W 122°24'0 0.0
2017-Jul-16 01:30N 47°40' W 122°24'0 0.0
2017-Jul-16 01:01N 47°40' W 122°24'0 0.0
2017-Jul-16 00:31N 47°40' W 122°24'0 0.0
2017-Jul-16 00:01N 47°40' W 122°24'0 0.0
2017-Jul-15 23:31N 47°40' W 122°24'0 0.0
2017-Jul-15 23:01N 47°40' W 122°24'0 0.0
2017-Jul-15 22:31N 47°40' W 122°24'0 0.0
2017-Jul-15 22:01N 47°40' W 122°24'0 0.0
2017-Jul-15 21:31N 47°40' W 122°24'0 0.0
2017-Jul-15 21:01N 47°40' W 122°24'0 0.0
2017-Jul-15 20:31N 47°40' W 122°24'0 0.0
2017-Jul-15 20:01N 47°40' W 122°24'0 0.0
2017-Jul-15 19:31N 47°40' W 122°24'0 0.0
2017-Jul-15 19:00N 47°40' W 122°24'0 0.0
2017-Jul-15 18:31N 47°40' W 122°24'0 0.0
2017-Jul-15 18:01N 47°40' W 122°24'0 0.0
2017-Jul-15 17:31N 47°40' W 122°24'0 0.0
2017-Jul-15 17:01N 47°40' W 122°24'0 0.0
2017-Jul-15 16:31N 47°40' W 122°24'0 0.0
2017-Jul-15 16:01N 47°40' W 122°24'0 0.0
2017-Jul-15 15:30N 47°40' W 122°24'0 0.0
2017-Jul-15 15:01N 47°40' W 122°24'0 0.0
2017-Jul-15 14:01N 47°40' W 122°24'0 0.0
2017-Jul-15 13:30N 47°40' W 122°24'0 0.0
2017-Jul-15 13:00N 47°40' W 122°24'0 0.0
2017-Jul-15 12:31N 47°40' W 122°24'0 0.0
2017-Jul-15 12:01N 47°40' W 122°24'0 0.0
2017-Jul-15 11:31N 47°40' W 122°24'0 0.0
2017-Jul-15 11:01N 47°40' W 122°24'0 0.0
2017-Jul-15 10:31N 47°40' W 122°24'0 0.0
2017-Jul-15 10:01N 47°40' W 122°24'0 0.0
2017-Jul-15 09:31N 47°40' W 122°24'0 0.0
2017-Jul-15 09:01N 47°40' W 122°24'0 0.0
2017-Jul-15 08:30N 47°40' W 122°24'0 0.0
2017-Jul-15 08:00N 47°40' W 122°24'0 0.0
2017-Jul-15 07:31N 47°40' W 122°24'0 0.0
2017-Jul-15 07:01N 47°40' W 122°24'0 0.0
2017-Jul-15 06:31N 47°40' W 122°24'0 0.0
2017-Jul-15 06:01N 47°40' W 122°24'0 0.0
2017-Jul-15 05:31N 47°40' W 122°24'0 0.0
2017-Jul-15 05:01N 47°40' W 122°24'0 0.0
2017-Jul-15 04:31N 47°40' W 122°24'0 0.0
2017-Jul-15 04:01N 47°40' W 122°24'0 0.0
2017-Jul-15 03:31N 47°40' W 122°24'0 0.0
2017-Jul-15 03:01N 47°40' W 122°24'0 0.0
2017-Jul-15 02:31N 47°40' W 122°24'0 0.0
2017-Jul-15 02:00N 47°40' W 122°24'0 0.0
2017-Jul-15 01:31N 47°40' W 122°24'0 0.0
2017-Jul-15 01:01N 47°40' W 122°24'0 0.0
2017-Jul-15 00:31N 47°40' W 122°24'0 0.0
2017-Jul-15 00:01N 47°40' W 122°24'0 0.0
2017-Jul-14 23:30N 47°40' W 122°24'0 0.0
2017-Jul-14 23:01N 47°40' W 122°24'0 0.0
2017-Jul-14 22:30N 47°40' W 122°24'0 0.0
2017-Jul-14 22:00N 47°40' W 122°24'0 0.0
2017-Jul-14 21:31N 47°40' W 122°24'0 0.0
2017-Jul-14 21:01N 47°40' W 122°24'0 0.0
2017-Jul-14 20:31N 47°40' W 122°24'0 0.0
2017-Jul-14 20:01N 47°40' W 122°24'0 0.0
2017-Jul-14 19:31N 47°40' W 122°24'0 0.0
2017-Jul-14 19:01N 47°40' W 122°24'0 0.0
2017-Jul-14 18:30N 47°40' W 122°24'0 0.0
2017-Jul-14 18:00N 47°40' W 122°24'0 0.0
2017-Jul-14 17:31N 47°40' W 122°24'0 0.0
2017-Jul-14 17:01N 47°40' W 122°24'  

Dump ship's entire track history